sensor_id;sensor_type;location;lat;lon;timestamp;P1;durP1;ratioP1;P2;durP2;ratioP2
11535;SDS011;5824;49.336;8.652;2024-01-27T00:01:16;9.53;;;6.10;;
11535;SDS011;5824;49.336;8.652;2024-01-27T00:03:42;15.97;;;7.70;;
11535;SDS011;5824;49.336;8.652;2024-01-27T00:06:07;17.30;;;7.73;;
11535;SDS011;5824;49.336;8.652;2024-01-27T00:08:33;19.50;;;7.97;;
11535;SDS011;5824;49.336;8.652;2024-01-27T00:10:58;11.77;;;6.40;;
11535;SDS011;5824;49.336;8.652;2024-01-27T00:13:24;11.07;;;5.60;;
11535;SDS011;5824;49.336;8.652;2024-01-27T00:15:49;17.93;;;5.40;;
11535;SDS011;5824;49.336;8.652;2024-01-27T00:18:16;9.13;;;5.20;;
11535;SDS011;5824;49.336;8.652;2024-01-27T00:20:42;8.80;;;4.40;;
11535;SDS011;5824;49.336;8.652;2024-01-27T00:23:07;10.33;;;4.60;;
11535;SDS011;5824;49.336;8.652;2024-01-27T00:25:33;15.73;;;4.60;;
11535;SDS011;5824;49.336;8.652;2024-01-27T00:27:59;8.50;;;4.73;;
11535;SDS011;5824;49.336;8.652;2024-01-27T00:30:24;9.70;;;5.43;;
11535;SDS011;5824;49.336;8.652;2024-01-27T00:32:51;11.13;;;5.20;;
11535;SDS011;5824;49.336;8.652;2024-01-27T00:35:16;9.33;;;5.30;;
11535;SDS011;5824;49.336;8.652;2024-01-27T00:37:42;9.33;;;4.37;;
11535;SDS011;5824;49.336;8.652;2024-01-27T00:40:08;9.80;;;5.47;;
11535;SDS011;5824;49.336;8.652;2024-01-27T00:42:34;13.63;;;6.30;;
11535;SDS011;5824;49.336;8.652;2024-01-27T00:45:00;10.20;;;5.53;;
11535;SDS011;5824;49.336;8.652;2024-01-27T00:47:25;11.00;;;5.80;;
11535;SDS011;5824;49.336;8.652;2024-01-27T00:49:51;12.73;;;6.00;;
11535;SDS011;5824;49.336;8.652;2024-01-27T00:52:19;9.67;;;5.37;;
11535;SDS011;5824;49.336;8.652;2024-01-27T00:54:44;9.77;;;5.67;;
11535;SDS011;5824;49.336;8.652;2024-01-27T00:57:10;14.50;;;5.97;;
11535;SDS011;5824;49.336;8.652;2024-01-27T00:59:35;10.07;;;5.33;;
11535;SDS011;5824;49.336;8.652;2024-01-27T01:02:01;11.33;;;5.10;;
11535;SDS011;5824;49.336;8.652;2024-01-27T01:04:27;9.87;;;5.37;;
11535;SDS011;5824;49.336;8.652;2024-01-27T01:06:52;9.33;;;5.50;;
11535;SDS011;5824;49.336;8.652;2024-01-27T01:09:18;9.37;;;5.50;;
11535;SDS011;5824;49.336;8.652;2024-01-27T01:11:43;10.87;;;5.30;;
11535;SDS011;5824;49.336;8.652;2024-01-27T01:14:09;18.77;;;6.20;;
11535;SDS011;5824;49.336;8.652;2024-01-27T01:16:34;11.13;;;5.13;;
11535;SDS011;5824;49.336;8.652;2024-01-27T01:19:00;13.37;;;5.63;;
11535;SDS011;5824;49.336;8.652;2024-01-27T01:21:26;17.50;;;5.87;;
11535;SDS011;5824;49.336;8.652;2024-01-27T01:23:51;10.57;;;5.30;;
11535;SDS011;5824;49.336;8.652;2024-01-27T01:26:17;11.27;;;6.00;;
11535;SDS011;5824;49.336;8.652;2024-01-27T01:28:43;12.10;;;6.30;;
11535;SDS011;5824;49.336;8.652;2024-01-27T01:31:08;11.63;;;5.40;;
11535;SDS011;5824;49.336;8.652;2024-01-27T01:33:34;13.43;;;5.47;;
11535;SDS011;5824;49.336;8.652;2024-01-27T01:35:59;8.43;;;5.57;;
11535;SDS011;5824;49.336;8.652;2024-01-27T01:38:25;13.23;;;5.80;;
11535;SDS011;5824;49.336;8.652;2024-01-27T01:40:50;11.77;;;6.20;;
11535;SDS011;5824;49.336;8.652;2024-01-27T01:43:16;9.13;;;5.53;;
11535;SDS011;5824;49.336;8.652;2024-01-27T01:45:41;9.07;;;5.30;;
11535;SDS011;5824;49.336;8.652;2024-01-27T01:48:07;9.23;;;5.43;;
11535;SDS011;5824;49.336;8.652;2024-01-27T01:50:33;8.53;;;4.33;;
11535;SDS011;5824;49.336;8.652;2024-01-27T01:52:59;9.00;;;4.80;;
11535;SDS011;5824;49.336;8.652;2024-01-27T01:55:25;11.63;;;4.90;;
11535;SDS011;5824;49.336;8.652;2024-01-27T01:57:51;14.73;;;5.13;;
11535;SDS011;5824;49.336;8.652;2024-01-27T02:00:16;7.60;;;5.10;;
11535;SDS011;5824;49.336;8.652;2024-01-27T02:02:43;8.60;;;4.43;;
11535;SDS011;5824;49.336;8.652;2024-01-27T02:05:09;7.20;;;4.90;;
11535;SDS011;5824;49.336;8.652;2024-01-27T02:07:35;8.00;;;5.40;;
11535;SDS011;5824;49.336;8.652;2024-01-27T02:10:01;10.30;;;5.37;;
11535;SDS011;5824;49.336;8.652;2024-01-27T02:12:27;8.10;;;4.77;;
11535;SDS011;5824;49.336;8.652;2024-01-27T02:14:52;11.33;;;6.57;;
11535;SDS011;5824;49.336;8.652;2024-01-27T02:17:18;12.07;;;6.00;;
11535;SDS011;5824;49.336;8.652;2024-01-27T02:19:43;13.10;;;5.30;;
11535;SDS011;5824;49.336;8.652;2024-01-27T02:22:09;9.77;;;5.13;;
11535;SDS011;5824;49.336;8.652;2024-01-27T02:24:34;18.27;;;6.53;;
11535;SDS011;5824;49.336;8.652;2024-01-27T02:27:00;18.80;;;8.20;;
11535;SDS011;5824;49.336;8.652;2024-01-27T02:29:25;9.30;;;5.93;;
11535;SDS011;5824;49.336;8.652;2024-01-27T02:31:52;10.50;;;5.60;;
11535;SDS011;5824;49.336;8.652;2024-01-27T02:34:18;9.10;;;5.40;;
11535;SDS011;5824;49.336;8.652;2024-01-27T02:36:44;11.70;;;5.60;;
11535;SDS011;5824;49.336;8.652;2024-01-27T02:39:09;11.20;;;5.43;;
11535;SDS011;5824;49.336;8.652;2024-01-27T02:41:35;11.10;;;5.53;;
11535;SDS011;5824;49.336;8.652;2024-01-27T02:44:04;14.30;;;6.10;;
11535;SDS011;5824;49.336;8.652;2024-01-27T02:46:30;10.80;;;5.97;;
11535;SDS011;5824;49.336;8.652;2024-01-27T02:48:55;9.60;;;5.83;;
11535;SDS011;5824;49.336;8.652;2024-01-27T02:51:21;14.30;;;5.67;;
11535;SDS011;5824;49.336;8.652;2024-01-27T02:53:46;11.03;;;5.70;;
11535;SDS011;5824;49.336;8.652;2024-01-27T02:56:12;10.70;;;6.77;;
11535;SDS011;5824;49.336;8.652;2024-01-27T02:58:37;9.30;;;5.70;;
11535;SDS011;5824;49.336;8.652;2024-01-27T03:01:03;10.67;;;5.33;;
11535;SDS011;5824;49.336;8.652;2024-01-27T03:03:29;10.70;;;5.47;;
11535;SDS011;5824;49.336;8.652;2024-01-27T03:05:55;13.10;;;5.67;;
11535;SDS011;5824;49.336;8.652;2024-01-27T03:08:20;9.13;;;5.30;;
11535;SDS011;5824;49.336;8.652;2024-01-27T03:10:46;8.60;;;5.53;;
11535;SDS011;5824;49.336;8.652;2024-01-27T03:13:11;9.77;;;5.53;;
11535;SDS011;5824;49.336;8.652;2024-01-27T03:15:37;11.23;;;5.70;;
11535;SDS011;5824;49.336;8.652;2024-01-27T03:18:03;9.33;;;6.00;;
11535;SDS011;5824;49.336;8.652;2024-01-27T03:20:29;12.90;;;5.90;;
11535;SDS011;5824;49.336;8.652;2024-01-27T03:22:56;9.80;;;5.23;;
11535;SDS011;5824;49.336;8.652;2024-01-27T03:25:22;9.50;;;5.80;;
11535;SDS011;5824;49.336;8.652;2024-01-27T03:27:50;12.53;;;6.20;;
11535;SDS011;5824;49.336;8.652;2024-01-27T03:30:16;15.23;;;5.80;;
11535;SDS011;5824;49.336;8.652;2024-01-27T03:32:42;10.60;;;5.60;;
11535;SDS011;5824;49.336;8.652;2024-01-27T03:35:07;10.70;;;5.53;;
11535;SDS011;5824;49.336;8.652;2024-01-27T03:37:33;11.40;;;6.00;;
11535;SDS011;5824;49.336;8.652;2024-01-27T03:39:59;12.20;;;5.80;;
11535;SDS011;5824;49.336;8.652;2024-01-27T03:42:25;10.17;;;5.90;;
11535;SDS011;5824;49.336;8.652;2024-01-27T03:44:51;8.03;;;5.30;;
11535;SDS011;5824;49.336;8.652;2024-01-27T03:47:17;8.43;;;5.57;;
11535;SDS011;5824;49.336;8.652;2024-01-27T03:49:42;8.60;;;5.77;;
11535;SDS011;5824;49.336;8.652;2024-01-27T03:52:08;15.60;;;6.10;;
11535;SDS011;5824;49.336;8.652;2024-01-27T03:54:33;10.90;;;6.60;;
11535;SDS011;5824;49.336;8.652;2024-01-27T03:56:59;9.13;;;5.83;;
11535;SDS011;5824;49.336;8.652;2024-01-27T03:59:24;9.13;;;5.53;;
11535;SDS011;5824;49.336;8.652;2024-01-27T04:01:50;13.87;;;5.77;;
11535;SDS011;5824;49.336;8.652;2024-01-27T04:04:16;13.60;;;5.80;;
11535;SDS011;5824;49.336;8.652;2024-01-27T04:06:41;8.20;;;5.10;;
11535;SDS011;5824;49.336;8.652;2024-01-27T04:09:08;12.03;;;6.20;;
11535;SDS011;5824;49.336;8.652;2024-01-27T04:11:34;10.10;;;7.73;;
11535;SDS011;5824;49.336;8.652;2024-01-27T04:14:01;14.93;;;5.50;;
11535;SDS011;5824;49.336;8.652;2024-01-27T04:16:27;10.57;;;5.67;;
11535;SDS011;5824;49.336;8.652;2024-01-27T04:18:53;13.97;;;6.20;;
11535;SDS011;5824;49.336;8.652;2024-01-27T04:21:19;10.30;;;5.63;;
11535;SDS011;5824;49.336;8.652;2024-01-27T04:23:44;15.83;;;6.60;;
11535;SDS011;5824;49.336;8.652;2024-01-27T04:26:10;13.00;;;5.73;;
11535;SDS011;5824;49.336;8.652;2024-01-27T04:28:36;9.37;;;5.43;;
11535;SDS011;5824;49.336;8.652;2024-01-27T04:31:02;12.83;;;5.67;;
11535;SDS011;5824;49.336;8.652;2024-01-27T04:33:28;12.87;;;5.73;;
11535;SDS011;5824;49.336;8.652;2024-01-27T04:35:53;10.90;;;5.80;;
11535;SDS011;5824;49.336;8.652;2024-01-27T04:38:19;15.37;;;5.90;;
11535;SDS011;5824;49.336;8.652;2024-01-27T04:40:44;11.13;;;6.73;;
11535;SDS011;5824;49.336;8.652;2024-01-27T04:43:10;11.27;;;5.87;;
11535;SDS011;5824;49.336;8.652;2024-01-27T04:45:39;9.53;;;5.53;;
11535;SDS011;5824;49.336;8.652;2024-01-27T04:48:04;10.70;;;5.70;;
11535;SDS011;5824;49.336;8.652;2024-01-27T04:50:30;10.83;;;5.60;;
11535;SDS011;5824;49.336;8.652;2024-01-27T04:52:55;10.67;;;5.50;;
11535;SDS011;5824;49.336;8.652;2024-01-27T04:55:21;11.17;;;6.00;;
11535;SDS011;5824;49.336;8.652;2024-01-27T04:57:46;12.07;;;5.30;;
11535;SDS011;5824;49.336;8.652;2024-01-27T05:00:12;8.87;;;5.50;;
11535;SDS011;5824;49.336;8.652;2024-01-27T05:02:41;11.47;;;6.10;;
11535;SDS011;5824;49.336;8.652;2024-01-27T05:05:07;12.10;;;5.43;;
11535;SDS011;5824;49.336;8.652;2024-01-27T05:07:33;16.80;;;5.20;;
11535;SDS011;5824;49.336;8.652;2024-01-27T05:09:59;11.50;;;4.93;;
11535;SDS011;5824;49.336;8.652;2024-01-27T05:12:25;8.83;;;5.10;;
11535;SDS011;5824;49.336;8.652;2024-01-27T05:14:50;15.40;;;5.23;;
11535;SDS011;5824;49.336;8.652;2024-01-27T05:17:16;9.03;;;5.53;;
11535;SDS011;5824;49.336;8.652;2024-01-27T05:19:41;8.10;;;5.00;;
11535;SDS011;5824;49.336;8.652;2024-01-27T05:22:07;10.30;;;5.50;;
11535;SDS011;5824;49.336;8.652;2024-01-27T05:24:33;12.80;;;5.03;;
11535;SDS011;5824;49.336;8.652;2024-01-27T05:26:59;13.47;;;5.10;;
11535;SDS011;5824;49.336;8.652;2024-01-27T05:29:26;11.93;;;5.10;;
11535;SDS011;5824;49.336;8.652;2024-01-27T05:31:52;8.90;;;5.50;;
11535;SDS011;5824;49.336;8.652;2024-01-27T05:34:18;9.83;;;5.20;;
11535;SDS011;5824;49.336;8.652;2024-01-27T05:36:44;11.40;;;5.40;;
11535;SDS011;5824;49.336;8.652;2024-01-27T05:39:09;10.40;;;5.10;;
11535;SDS011;5824;49.336;8.652;2024-01-27T05:41:35;13.53;;;5.30;;
11535;SDS011;5824;49.336;8.652;2024-01-27T05:44:00;11.43;;;5.23;;
11535;SDS011;5824;49.336;8.652;2024-01-27T05:46:26;11.90;;;5.17;;
11535;SDS011;5824;49.336;8.652;2024-01-27T05:48:51;17.03;;;6.43;;
11535;SDS011;5824;49.336;8.652;2024-01-27T05:51:22;10.93;;;5.30;;
11535;SDS011;5824;49.336;8.652;2024-01-27T05:53:48;10.70;;;4.70;;
11535;SDS011;5824;49.336;8.652;2024-01-27T05:56:14;9.67;;;5.37;;
11535;SDS011;5824;49.336;8.652;2024-01-27T05:58:40;11.13;;;5.03;;
11535;SDS011;5824;49.336;8.652;2024-01-27T06:01:05;8.70;;;5.47;;
11535;SDS011;5824;49.336;8.652;2024-01-27T06:03:31;8.83;;;5.33;;
11535;SDS011;5824;49.336;8.652;2024-01-27T06:05:57;10.80;;;4.90;;
11535;SDS011;5824;49.336;8.652;2024-01-27T06:08:22;7.67;;;5.10;;
11535;SDS011;5824;49.336;8.652;2024-01-27T06:10:48;14.20;;;5.60;;
11535;SDS011;5824;49.336;8.652;2024-01-27T06:13:13;12.77;;;5.67;;
11535;SDS011;5824;49.336;8.652;2024-01-27T06:15:39;11.30;;;5.40;;
11535;SDS011;5824;49.336;8.652;2024-01-27T06:18:04;14.27;;;5.83;;
11535;SDS011;5824;49.336;8.652;2024-01-27T06:20:30;9.00;;;4.83;;
11535;SDS011;5824;49.336;8.652;2024-01-27T06:22:56;10.60;;;5.57;;
11535;SDS011;5824;49.336;8.652;2024-01-27T06:25:22;8.10;;;5.10;;
11535;SDS011;5824;49.336;8.652;2024-01-27T06:27:49;10.60;;;5.60;;
11535;SDS011;5824;49.336;8.652;2024-01-27T06:30:14;10.00;;;5.20;;
11535;SDS011;5824;49.336;8.652;2024-01-27T06:32:43;15.43;;;6.10;;
11535;SDS011;5824;49.336;8.652;2024-01-27T06:35:08;21.43;;;5.57;;
11535;SDS011;5824;49.336;8.652;2024-01-27T06:37:34;9.40;;;5.47;;
11535;SDS011;5824;49.336;8.652;2024-01-27T06:40:00;10.27;;;5.43;;
11535;SDS011;5824;49.336;8.652;2024-01-27T06:42:25;12.13;;;5.70;;
11535;SDS011;5824;49.336;8.652;2024-01-27T06:44:51;12.13;;;5.70;;
11535;SDS011;5824;49.336;8.652;2024-01-27T06:47:16;11.20;;;6.00;;
11535;SDS011;5824;49.336;8.652;2024-01-27T06:49:42;14.50;;;5.80;;
11535;SDS011;5824;49.336;8.652;2024-01-27T06:52:07;11.40;;;5.77;;
11535;SDS011;5824;49.336;8.652;2024-01-27T06:54:33;11.90;;;6.40;;
11535;SDS011;5824;49.336;8.652;2024-01-27T06:56:59;14.33;;;6.97;;
11535;SDS011;5824;49.336;8.652;2024-01-27T06:59:25;28.63;;;11.00;;
11535;SDS011;5824;49.336;8.652;2024-01-27T07:01:51;34.60;;;14.73;;
11535;SDS011;5824;49.336;8.652;2024-01-27T07:04:17;31.13;;;14.07;;
11535;SDS011;5824;49.336;8.652;2024-01-27T07:06:43;28.07;;;13.50;;
11535;SDS011;5824;49.336;8.652;2024-01-27T07:09:08;20.50;;;11.90;;
11535;SDS011;5824;49.336;8.652;2024-01-27T07:11:34;19.80;;;10.10;;
11535;SDS011;5824;49.336;8.652;2024-01-27T07:14:01;17.77;;;9.50;;
11535;SDS011;5824;49.336;8.652;2024-01-27T07:16:27;19.60;;;8.87;;
11535;SDS011;5824;49.336;8.652;2024-01-27T07:18:52;15.20;;;7.03;;
11535;SDS011;5824;49.336;8.652;2024-01-27T07:21:18;10.80;;;6.47;;
11535;SDS011;5824;49.336;8.652;2024-01-27T07:23:43;12.93;;;7.20;;
11535;SDS011;5824;49.336;8.652;2024-01-27T07:26:10;12.20;;;6.90;;
11535;SDS011;5824;49.336;8.652;2024-01-27T07:28:36;15.70;;;7.30;;
11535;SDS011;5824;49.336;8.652;2024-01-27T07:31:02;10.53;;;6.60;;
11535;SDS011;5824;49.336;8.652;2024-01-27T07:33:28;11.57;;;6.80;;
11535;SDS011;5824;49.336;8.652;2024-01-27T07:35:54;15.80;;;6.77;;
11535;SDS011;5824;49.336;8.652;2024-01-27T07:38:20;19.30;;;6.70;;
11535;SDS011;5824;49.336;8.652;2024-01-27T07:40:45;9.80;;;5.60;;
11535;SDS011;5824;49.336;8.652;2024-01-27T07:43:11;9.80;;;5.03;;
11535;SDS011;5824;49.336;8.652;2024-01-27T07:45:37;10.57;;;6.10;;
11535;SDS011;5824;49.336;8.652;2024-01-27T07:48:03;9.73;;;4.97;;
11535;SDS011;5824;49.336;8.652;2024-01-27T07:50:29;8.80;;;5.10;;
11535;SDS011;5824;49.336;8.652;2024-01-27T07:52:55;8.47;;;4.67;;
11535;SDS011;5824;49.336;8.652;2024-01-27T07:55:21;11.93;;;5.27;;
11535;SDS011;5824;49.336;8.652;2024-01-27T07:57:47;8.07;;;5.57;;
11535;SDS011;5824;49.336;8.652;2024-01-27T08:00:12;17.67;;;5.30;;
11535;SDS011;5824;49.336;8.652;2024-01-27T08:02:38;8.40;;;5.50;;
11535;SDS011;5824;49.336;8.652;2024-01-27T08:05:03;10.87;;;4.70;;
11535;SDS011;5824;49.336;8.652;2024-01-27T08:07:29;12.03;;;5.47;;
11535;SDS011;5824;49.336;8.652;2024-01-27T08:09:55;10.53;;;5.00;;
11535;SDS011;5824;49.336;8.652;2024-01-27T08:12:22;8.63;;;5.13;;
11535;SDS011;5824;49.336;8.652;2024-01-27T08:14:47;9.80;;;4.93;;
11535;SDS011;5824;49.336;8.652;2024-01-27T08:17:13;8.10;;;5.10;;
11535;SDS011;5824;49.336;8.652;2024-01-27T08:19:39;12.20;;;4.60;;
11535;SDS011;5824;49.336;8.652;2024-01-27T08:22:04;8.43;;;4.83;;
11535;SDS011;5824;49.336;8.652;2024-01-27T08:24:30;10.50;;;5.60;;
11535;SDS011;5824;49.336;8.652;2024-01-27T08:26:56;8.87;;;5.30;;
11535;SDS011;5824;49.336;8.652;2024-01-27T08:29:22;9.13;;;5.10;;
11535;SDS011;5824;49.336;8.652;2024-01-27T08:31:48;10.20;;;5.20;;
11535;SDS011;5824;49.336;8.652;2024-01-27T08:34:14;11.67;;;5.20;;
11535;SDS011;5824;49.336;8.652;2024-01-27T08:36:40;7.37;;;4.40;;
11535;SDS011;5824;49.336;8.652;2024-01-27T08:39:05;10.37;;;5.10;;
11535;SDS011;5824;49.336;8.652;2024-01-27T08:41:34;11.30;;;5.53;;
11535;SDS011;5824;49.336;8.652;2024-01-27T08:43:59;9.63;;;5.30;;
11535;SDS011;5824;49.336;8.652;2024-01-27T08:46:25;10.70;;;5.67;;
11535;SDS011;5824;49.336;8.652;2024-01-27T08:48:50;7.53;;;5.10;;
11535;SDS011;5824;49.336;8.652;2024-01-27T08:51:16;7.60;;;4.63;;
11535;SDS011;5824;49.336;8.652;2024-01-27T08:53:43;11.30;;;5.03;;
11535;SDS011;5824;49.336;8.652;2024-01-27T08:56:13;10.90;;;4.80;;
11535;SDS011;5824;49.336;8.652;2024-01-27T08:58:45;13.80;;;5.03;;
11535;SDS011;5824;49.336;8.652;2024-01-27T09:01:12;8.47;;;4.53;;
11535;SDS011;5824;49.336;8.652;2024-01-27T09:03:40;11.70;;;5.60;;
11535;SDS011;5824;49.336;8.652;2024-01-27T09:06:06;8.77;;;5.17;;
11535;SDS011;5824;49.336;8.652;2024-01-27T09:08:35;10.60;;;4.60;;
11535;SDS011;5824;49.336;8.652;2024-01-27T09:11:03;12.27;;;4.67;;
11535;SDS011;5824;49.336;8.652;2024-01-27T09:13:29;8.67;;;4.70;;
11535;SDS011;5824;49.336;8.652;2024-01-27T09:15:56;9.17;;;4.87;;
11535;SDS011;5824;49.336;8.652;2024-01-27T09:18:22;11.13;;;4.50;;
11535;SDS011;5824;49.336;8.652;2024-01-27T09:20:48;7.67;;;4.70;;
11535;SDS011;5824;49.336;8.652;2024-01-27T09:23:13;7.77;;;4.30;;
11535;SDS011;5824;49.336;8.652;2024-01-27T09:25:39;7.00;;;4.27;;
11535;SDS011;5824;49.336;8.652;2024-01-27T09:28:04;7.83;;;4.73;;
11535;SDS011;5824;49.336;8.652;2024-01-27T09:30:30;7.30;;;4.20;;
11535;SDS011;5824;49.336;8.652;2024-01-27T09:32:55;7.40;;;3.73;;
11535;SDS011;5824;49.336;8.652;2024-01-27T09:35:21;6.73;;;3.80;;
11535;SDS011;5824;49.336;8.652;2024-01-27T09:37:46;5.70;;;3.37;;
11535;SDS011;5824;49.336;8.652;2024-01-27T09:40:12;6.80;;;3.90;;
11535;SDS011;5824;49.336;8.652;2024-01-27T09:42:38;8.97;;;6.73;;
11535;SDS011;5824;49.336;8.652;2024-01-27T09:45:04;7.80;;;4.40;;
11535;SDS011;5824;49.336;8.652;2024-01-27T09:47:30;10.97;;;4.50;;
11535;SDS011;5824;49.336;8.652;2024-01-27T09:49:56;6.80;;;4.13;;
11535;SDS011;5824;49.336;8.652;2024-01-27T09:52:22;6.50;;;4.07;;
11535;SDS011;5824;49.336;8.652;2024-01-27T09:54:48;8.03;;;3.97;;
11535;SDS011;5824;49.336;8.652;2024-01-27T09:57:13;6.80;;;4.17;;
11535;SDS011;5824;49.336;8.652;2024-01-27T09:59:40;6.40;;;3.50;;
11535;SDS011;5824;49.336;8.652;2024-01-27T10:02:09;7.03;;;3.67;;
11535;SDS011;5824;49.336;8.652;2024-01-27T10:04:41;7.90;;;3.97;;
11535;SDS011;5824;49.336;8.652;2024-01-27T10:07:07;5.40;;;3.60;;
11535;SDS011;5824;49.336;8.652;2024-01-27T10:09:33;8.57;;;3.57;;
11535;SDS011;5824;49.336;8.652;2024-01-27T10:11:58;7.37;;;3.70;;
11535;SDS011;5824;49.336;8.652;2024-01-27T10:14:36;7.70;;;4.17;;
11535;SDS011;5824;49.336;8.652;2024-01-27T10:17:03;8.00;;;3.63;;
11535;SDS011;5824;49.336;8.652;2024-01-27T10:19:28;6.17;;;3.40;;
11535;SDS011;5824;49.336;8.652;2024-01-27T10:21:59;11.77;;;3.70;;
11535;SDS011;5824;49.336;8.652;2024-01-27T10:24:31;8.63;;;4.20;;
11535;SDS011;5824;49.336;8.652;2024-01-27T10:27:00;9.02;;;3.80;;
11535;SDS011;5824;49.336;8.652;2024-01-27T10:29:27;9.23;;;3.70;;
11535;SDS011;5824;49.336;8.652;2024-01-27T10:31:53;7.13;;;3.20;;
11535;SDS011;5824;49.336;8.652;2024-01-27T10:34:21;9.50;;;3.80;;
11535;SDS011;5824;49.336;8.652;2024-01-27T10:36:47;6.10;;;3.30;;
11535;SDS011;5824;49.336;8.652;2024-01-27T10:39:14;6.70;;;3.20;;
11535;SDS011;5824;49.336;8.652;2024-01-27T10:41:45;9.10;;;3.50;;
11535;SDS011;5824;49.336;8.652;2024-01-27T10:44:15;7.30;;;3.80;;
11535;SDS011;5824;49.336;8.652;2024-01-27T10:46:45;7.17;;;3.20;;
11535;SDS011;5824;49.336;8.652;2024-01-27T10:49:12;8.97;;;3.60;;
11535;SDS011;5824;49.336;8.652;2024-01-27T10:51:41;6.33;;;3.40;;
11535;SDS011;5824;49.336;8.652;2024-01-27T10:54:10;14.77;;;3.87;;
11535;SDS011;5824;49.336;8.652;2024-01-27T10:56:40;7.57;;;3.90;;
11535;SDS011;5824;49.336;8.652;2024-01-27T10:59:08;7.90;;;4.10;;
11535;SDS011;5824;49.336;8.652;2024-01-27T11:01:35;8.43;;;4.40;;
11535;SDS011;5824;49.336;8.652;2024-01-27T11:04:02;11.00;;;3.53;;
11535;SDS011;5824;49.336;8.652;2024-01-27T11:06:31;8.87;;;4.10;;
11535;SDS011;5824;49.336;8.652;2024-01-27T11:08:57;8.40;;;4.23;;
11535;SDS011;5824;49.336;8.652;2024-01-27T11:11:24;9.57;;;4.20;;
11535;SDS011;5824;49.336;8.652;2024-01-27T11:13:50;5.32;;;3.10;;
11535;SDS011;5824;49.336;8.652;2024-01-27T11:16:17;9.05;;;3.67;;
11535;SDS011;5824;49.336;8.652;2024-01-27T11:18:43;8.10;;;3.35;;
11535;SDS011;5824;49.336;8.652;2024-01-27T11:21:13;9.30;;;3.50;;
11535;SDS011;5824;49.336;8.652;2024-01-27T11:23:40;7.95;;;3.28;;
11535;SDS011;5824;49.336;8.652;2024-01-27T11:26:07;10.10;;;3.70;;
11535;SDS011;5824;49.336;8.652;2024-01-27T11:28:33;7.95;;;3.58;;
11535;SDS011;5824;49.336;8.652;2024-01-27T11:31:04;4.85;;;2.95;;
11535;SDS011;5824;49.336;8.652;2024-01-27T11:33:30;6.55;;;3.00;;
11535;SDS011;5824;49.336;8.652;2024-01-27T11:36:02;7.97;;;3.15;;
11535;SDS011;5824;49.336;8.652;2024-01-27T11:38:30;8.02;;;3.03;;
11535;SDS011;5824;49.336;8.652;2024-01-27T11:40:57;9.48;;;3.67;;
11535;SDS011;5824;49.336;8.652;2024-01-27T11:43:23;8.77;;;3.17;;
11535;SDS011;5824;49.336;8.652;2024-01-27T11:45:54;6.70;;;3.33;;
11535;SDS011;5824;49.336;8.652;2024-01-27T11:48:29;7.90;;;3.40;;
11535;SDS011;5824;49.336;8.652;2024-01-27T11:51:07;10.35;;;3.60;;
11535;SDS011;5824;49.336;8.652;2024-01-27T11:53:37;11.00;;;3.20;;
11535;SDS011;5824;49.336;8.652;2024-01-27T11:56:03;9.10;;;2.63;;
11535;SDS011;5824;49.336;8.652;2024-01-27T11:58:29;7.30;;;2.40;;
11535;SDS011;5824;49.336;8.652;2024-01-27T12:00:56;8.30;;;3.30;;
11535;SDS011;5824;49.336;8.652;2024-01-27T12:03:22;7.53;;;2.63;;
11535;SDS011;5824;49.336;8.652;2024-01-27T12:05:47;6.00;;;2.57;;
11535;SDS011;5824;49.336;8.652;2024-01-27T12:08:13;6.07;;;2.87;;
11535;SDS011;5824;49.336;8.652;2024-01-27T12:10:38;9.47;;;3.07;;
11535;SDS011;5824;49.336;8.652;2024-01-27T12:13:04;7.68;;;2.80;;
11535;SDS011;5824;49.336;8.652;2024-01-27T12:15:30;6.60;;;3.50;;
11535;SDS011;5824;49.336;8.652;2024-01-27T12:17:55;7.50;;;3.00;;
11535;SDS011;5824;49.336;8.652;2024-01-27T12:20:24;8.50;;;2.73;;
11535;SDS011;5824;49.336;8.652;2024-01-27T12:22:50;6.43;;;2.70;;
11535;SDS011;5824;49.336;8.652;2024-01-27T12:25:26;9.97;;;2.60;;
11535;SDS011;5824;49.336;8.652;2024-01-27T12:27:52;8.77;;;3.07;;
11535;SDS011;5824;49.336;8.652;2024-01-27T12:30:17;6.90;;;3.22;;
11535;SDS011;5824;49.336;8.652;2024-01-27T12:32:43;6.38;;;2.75;;
11535;SDS011;5824;49.336;8.652;2024-01-27T12:35:08;7.75;;;3.00;;
11535;SDS011;5824;49.336;8.652;2024-01-27T12:37:34;10.45;;;2.63;;
11535;SDS011;5824;49.336;8.652;2024-01-27T12:40:01;9.30;;;2.63;;
11535;SDS011;5824;49.336;8.652;2024-01-27T12:42:26;6.78;;;2.95;;
11535;SDS011;5824;49.336;8.652;2024-01-27T12:44:52;7.40;;;2.72;;
11535;SDS011;5824;49.336;8.652;2024-01-27T12:47:17;7.20;;;2.60;;
11535;SDS011;5824;49.336;8.652;2024-01-27T12:49:45;6.72;;;2.58;;
11535;SDS011;5824;49.336;8.652;2024-01-27T12:52:10;8.57;;;2.70;;
11535;SDS011;5824;49.336;8.652;2024-01-27T12:54:36;5.68;;;2.53;;
11535;SDS011;5824;49.336;8.652;2024-01-27T12:57:01;6.57;;;2.67;;
11535;SDS011;5824;49.336;8.652;2024-01-27T12:59:27;8.23;;;2.70;;
11535;SDS011;5824;49.336;8.652;2024-01-27T13:01:53;5.90;;;2.67;;
11535;SDS011;5824;49.336;8.652;2024-01-27T13:04:19;7.27;;;2.97;;
11535;SDS011;5824;49.336;8.652;2024-01-27T13:06:44;8.57;;;3.97;;
11535;SDS011;5824;49.336;8.652;2024-01-27T13:09:10;11.90;;;3.40;;
11535;SDS011;5824;49.336;8.652;2024-01-27T13:11:39;6.00;;;2.67;;
11535;SDS011;5824;49.336;8.652;2024-01-27T13:14:04;11.70;;;3.30;;
11535;SDS011;5824;49.336;8.652;2024-01-27T13:16:30;6.83;;;2.70;;
11535;SDS011;5824;49.336;8.652;2024-01-27T13:18:56;6.93;;;2.97;;
11535;SDS011;5824;49.336;8.652;2024-01-27T13:21:21;10.23;;;2.73;;
11535;SDS011;5824;49.336;8.652;2024-01-27T13:23:47;9.00;;;2.90;;
11535;SDS011;5824;49.336;8.652;2024-01-27T13:26:12;7.10;;;2.77;;
11535;SDS011;5824;49.336;8.652;2024-01-27T13:28:38;7.90;;;2.73;;
11535;SDS011;5824;49.336;8.652;2024-01-27T13:31:03;6.80;;;2.47;;
11535;SDS011;5824;49.336;8.652;2024-01-27T13:33:29;8.60;;;2.57;;
11535;SDS011;5824;49.336;8.652;2024-01-27T13:35:55;6.97;;;3.00;;
11535;SDS011;5824;49.336;8.652;2024-01-27T13:38:21;7.20;;;2.63;;
11535;SDS011;5824;49.336;8.652;2024-01-27T13:40:51;6.70;;;3.63;;
11535;SDS011;5824;49.336;8.652;2024-01-27T13:43:17;3.97;;;2.27;;
11535;SDS011;5824;49.336;8.652;2024-01-27T13:45:42;7.27;;;2.50;;
11535;SDS011;5824;49.336;8.652;2024-01-27T13:48:08;15.30;;;2.80;;
11535;SDS011;5824;49.336;8.652;2024-01-27T13:50:34;7.13;;;2.30;;
11535;SDS011;5824;49.336;8.652;2024-01-27T13:52:59;6.13;;;2.40;;
11535;SDS011;5824;49.336;8.652;2024-01-27T13:55:25;11.50;;;2.70;;
11535;SDS011;5824;49.336;8.652;2024-01-27T13:57:51;9.73;;;2.60;;
11535;SDS011;5824;49.336;8.652;2024-01-27T14:00:16;9.33;;;2.30;;
11535;SDS011;5824;49.336;8.652;2024-01-27T14:02:42;8.60;;;2.80;;
11535;SDS011;5824;49.336;8.652;2024-01-27T14:05:08;4.60;;;2.47;;
11535;SDS011;5824;49.336;8.652;2024-01-27T14:07:34;8.70;;;2.17;;
11535;SDS011;5824;49.336;8.652;2024-01-27T14:10:00;8.80;;;2.63;;
11535;SDS011;5824;49.336;8.652;2024-01-27T14:12:26;6.67;;;2.50;;
11535;SDS011;5824;49.336;8.652;2024-01-27T14:14:52;6.27;;;2.50;;
11535;SDS011;5824;49.336;8.652;2024-01-27T14:17:17;6.00;;;3.10;;
11535;SDS011;5824;49.336;8.652;2024-01-27T14:19:45;7.40;;;2.73;;
11535;SDS011;5824;49.336;8.652;2024-01-27T14:22:11;8.20;;;2.73;;
11535;SDS011;5824;49.336;8.652;2024-01-27T14:24:37;7.70;;;2.57;;
11535;SDS011;5824;49.336;8.652;2024-01-27T14:27:03;7.80;;;2.53;;
11535;SDS011;5824;49.336;8.652;2024-01-27T14:29:30;9.73;;;2.80;;
11535;SDS011;5824;49.336;8.652;2024-01-27T14:31:57;6.53;;;2.77;;
11535;SDS011;5824;49.336;8.652;2024-01-27T14:34:22;6.00;;;2.53;;
11535;SDS011;5824;49.336;8.652;2024-01-27T14:36:48;7.80;;;2.37;;
11535;SDS011;5824;49.336;8.652;2024-01-27T14:39:13;6.43;;;2.63;;
11535;SDS011;5824;49.336;8.652;2024-01-27T14:41:39;8.40;;;3.00;;
11535;SDS011;5824;49.336;8.652;2024-01-27T14:44:04;6.90;;;2.67;;
11535;SDS011;5824;49.336;8.652;2024-01-27T14:46:31;7.80;;;1.70;;
11535;SDS011;5824;49.336;8.652;2024-01-27T14:48:56;8.03;;;1.70;;